createdAt,value
2018-04-14T00:01:00.236Z,8.93
2018-04-14T00:03:29.239Z,8.89
2018-04-14T00:06:00.595Z,8.87
2018-04-14T00:08:29.091Z,8.87
2018-04-14T00:10:57.773Z,8.82
2018-04-14T00:13:26.851Z,8.78
2018-04-14T00:15:58.237Z,8.75
2018-04-14T00:18:26.738Z,8.72
2018-04-14T00:20:58.941Z,8.74
2018-04-14T00:23:27.210Z,8.78
2018-04-14T00:25:57.382Z,8.74
2018-04-14T00:28:26.520Z,8.74
2018-04-14T00:30:55.610Z,8.67
2018-04-14T00:33:23.930Z,8.62
2018-04-14T00:35:54.443Z,8.57
2018-04-14T00:38:23.490Z,8.54
2018-04-14T00:40:51.724Z,8.54
2018-04-14T00:43:20.374Z,8.54
2018-04-14T00:45:48.684Z,8.53
2018-04-14T00:48:19.870Z,8.52
2018-04-14T00:50:48.136Z,8.48
2018-04-14T00:53:34.338Z,8.43
2018-04-14T00:56:04.892Z,8.35
2018-04-14T00:58:33.427Z,8.34
2018-04-14T01:01:03.592Z,8.31
2018-04-14T01:03:32.098Z,8.28
2018-04-14T01:06:03.592Z,8.28
2018-04-14T01:08:31.906Z,8.25
2018-04-14T01:11:01.893Z,8.21
2018-04-14T01:13:30.306Z,8.17
2018-04-14T01:15:58.594Z,8.14
2018-04-14T01:18:27.179Z,8.13
2018-04-14T01:20:55.481Z,8.14
2018-04-14T01:23:23.731Z,8.14
2018-04-14T01:25:52.757Z,8.15
2018-04-14T01:28:21.135Z,8.13
2018-04-14T01:30:49.419Z,8.14
2018-04-14T01:33:17.780Z,8.11
2018-04-14T01:35:46.093Z,8.13
2018-04-14T01:38:17.944Z,8.12
2018-04-14T01:40:46.198Z,8.14
2018-04-14T01:43:16.252Z,8.10
2018-04-14T01:45:44.599Z,8.07
2018-04-14T01:48:20.564Z,8.03
2018-04-14T01:50:48.835Z,8.01
2018-04-14T01:53:19.779Z,8.01
2018-04-14T01:55:48.053Z,7.96
2018-04-14T01:58:19.979Z,7.94
2018-04-14T02:00:48.335Z,7.93
2018-04-14T02:03:18.453Z,7.88
2018-04-14T02:05:46.883Z,7.86
2018-04-14T02:08:16.706Z,7.85
2018-04-14T02:10:44.955Z,7.80
2018-04-14T02:13:15.479Z,7.75
2018-04-14T02:15:44.056Z,7.69
2018-04-14T02:18:14.092Z,7.67
2018-04-14T02:20:42.639Z,7.63
2018-04-14T02:23:13.715Z,7.59
2018-04-14T02:25:41.977Z,7.56
2018-04-14T02:28:11.832Z,7.56
2018-04-14T02:30:40.855Z,7.58
2018-04-14T02:33:09.880Z,7.59
2018-04-14T02:35:40.344Z,7.59
2018-04-14T02:38:10.780Z,7.62
2018-04-14T02:40:39.101Z,7.64
2018-04-14T02:43:07.449Z,7.62
2018-04-14T02:45:37.441Z,7.59
2018-04-14T02:48:05.697Z,7.60
2018-04-14T02:50:35.517Z,7.57
2018-04-14T02:53:07.742Z,7.53
2018-04-14T02:55:36.005Z,7.51
2018-04-14T02:58:04.336Z,7.48
2018-04-14T03:00:32.829Z,7.42
2018-04-14T03:03:01.441Z,7.36
2018-04-14T03:05:31.890Z,7.37
2018-04-14T03:08:00.205Z,7.40
2018-04-14T03:10:31.311Z,7.35
2018-04-14T03:12:59.683Z,7.30
2018-04-14T03:15:29.369Z,7.27
2018-04-14T03:17:57.725Z,7.23
2018-04-14T03:20:30.081Z,7.19
2018-04-14T03:22:58.377Z,7.14
2018-04-14T03:25:29.427Z,7.11
2018-04-14T03:27:57.833Z,7.09
2018-04-14T03:30:28.455Z,7.08
2018-04-14T03:32:57.009Z,7.06
2018-04-14T03:35:25.541Z,7.06
2018-04-14T03:37:53.888Z,7.08
2018-04-14T03:40:23.615Z,7.09
2018-04-14T03:42:51.917Z,7.07
2018-04-14T03:45:22.332Z,7.02
2018-04-14T03:47:50.707Z,6.97
2018-04-14T03:50:21.628Z,6.93
2018-04-14T03:52:50.289Z,6.90
2018-04-14T03:55:21.607Z,6.87
2018-04-14T03:57:50.675Z,6.83
2018-04-14T04:00:20.413Z,6.78
2018-04-14T04:02:48.715Z,6.75
2018-04-14T04:05:17.285Z,6.76
2018-04-14T04:07:45.865Z,6.73
2018-04-14T04:10:14.638Z,6.72
2018-04-14T04:12:43.409Z,6.69
2018-04-14T04:15:11.656Z,6.66
2018-04-14T04:17:41.244Z,6.64
2018-04-14T04:23:55.888Z,6.68
2018-04-14T04:26:24.459Z,6.69
2018-04-14T04:28:54.259Z,6.67
2018-04-14T04:31:24.059Z,6.67
2018-04-14T04:33:52.435Z,6.64
2018-04-14T04:36:21.822Z,6.61
2018-04-14T04:38:50.891Z,6.55
2018-04-14T04:41:23.358Z,6.54
2018-04-14T04:43:52.399Z,6.55
2018-04-14T04:46:22.462Z,6.54
2018-04-14T04:48:51.011Z,6.53
2018-04-14T04:51:20.779Z,6.54
2018-04-14T04:53:49.071Z,6.59
2018-04-14T04:56:18.316Z,6.61
2018-04-14T04:58:46.883Z,6.64
2018-04-14T05:01:15.371Z,6.66
2018-04-14T05:03:44.123Z,6.70
2018-04-14T05:06:13.038Z,6.74
2018-04-14T05:08:42.489Z,6.85
2018-04-14T05:11:10.975Z,6.92
2018-04-14T05:13:40.657Z,6.99
2018-04-14T05:16:10.131Z,7.01
2018-04-14T05:18:40.731Z,7.04
2018-04-14T05:21:09.524Z,7.11
2018-04-14T05:23:39.678Z,7.12
2018-04-14T05:26:07.981Z,7.15
2018-04-14T05:28:38.084Z,7.20
2018-04-14T05:31:10.276Z,7.26
2018-04-14T05:33:41.281Z,7.30
2018-04-14T05:36:09.619Z,7.36
2018-04-14T05:38:39.848Z,7.43
2018-04-14T05:41:09.109Z,7.50
2018-04-14T05:43:40.662Z,7.56
2018-04-14T05:46:09.792Z,7.63
2018-04-14T05:48:40.155Z,7.73
2018-04-14T05:51:08.813Z,7.81
2018-04-14T05:53:38.198Z,7.90
2018-04-14T05:56:06.761Z,8.01
2018-04-14T05:58:35.339Z,8.10
2018-04-14T06:01:04.175Z,8.20
2018-04-14T06:03:32.970Z,8.29
2018-04-14T06:06:03.605Z,8.43
2018-04-14T06:08:33.190Z,8.53
2018-04-14T06:11:01.641Z,8.66
2018-04-14T06:13:31.326Z,8.78
2018-04-14T06:16:00.625Z,8.91
2018-04-14T06:18:30.725Z,9.08
2018-04-14T06:20:59.783Z,9.21
2018-04-14T06:23:28.373Z,9.36
2018-04-14T06:25:56.937Z,9.53
2018-04-14T06:28:25.815Z,9.86
2018-04-14T06:30:54.495Z,10.41
2018-04-14T06:33:23.000Z,11.11
2018-04-14T06:35:51.577Z,11.83
2018-04-14T06:38:20.723Z,12.61
2018-04-14T06:40:50.037Z,13.13
2018-04-14T06:43:18.322Z,13.48
2018-04-14T06:45:50.021Z,13.73
2018-04-14T06:48:23.656Z,13.89
2018-04-14T06:50:52.274Z,13.97
2018-04-14T06:53:23.258Z,14.14
2018-04-14T06:55:51.623Z,14.26
2018-04-14T06:58:23.644Z,14.51
2018-04-14T07:03:33.852Z,14.68
2018-04-14T07:06:03.737Z,14.71
2018-04-14T07:08:32.173Z,14.71
2018-04-14T07:11:00.511Z,14.72
2018-04-14T07:13:29.631Z,14.69
2018-04-14T07:15:58.050Z,14.66
2018-04-14T07:18:27.210Z,14.62
2018-04-14T07:20:57.101Z,14.66
2018-04-14T07:23:25.366Z,14.70
2018-04-14T07:25:57.356Z,14.73
2018-04-14T07:28:25.819Z,14.81
2018-04-14T07:30:56.315Z,14.82
2018-04-14T07:33:25.675Z,14.81
2018-04-14T07:35:56.824Z,14.80
2018-04-14T07:38:26.097Z,14.85
2018-04-14T07:40:56.105Z,14.91
2018-04-14T07:43:24.494Z,14.96
2018-04-14T07:45:54.470Z,15.02
2018-04-14T07:48:23.701Z,15.04
2018-04-14T07:50:52.400Z,15.10
2018-04-14T07:53:20.740Z,15.18
2018-04-14T07:55:50.602Z,15.23
2018-04-14T07:58:19.944Z,15.25
2018-04-14T08:00:49.549Z,15.32
2018-04-14T08:03:18.203Z,15.43
2018-04-14T08:05:48.094Z,15.61
2018-04-14T08:08:16.470Z,15.95
2018-04-14T08:10:47.816Z,16.24
2018-04-14T08:13:17.105Z,16.48
2018-04-14T08:15:48.314Z,16.80
2018-04-14T08:18:16.667Z,17.04
2018-04-14T08:20:47.091Z,17.22
2018-04-14T08:23:15.423Z,17.63
2018-04-14T08:25:44.401Z,17.81
2018-04-14T08:28:14.821Z,17.85
2018-04-14T08:30:43.320Z,17.94
2018-04-14T08:33:12.754Z,18.07
2018-04-14T08:35:41.112Z,18.18
2018-04-14T08:38:10.368Z,18.19
2018-04-14T08:40:38.690Z,18.24
2018-04-14T08:43:07.348Z,18.23
2018-04-14T08:45:35.920Z,18.22
2018-04-14T08:48:06.181Z,18.32
2018-04-14T08:50:34.797Z,18.44
2018-04-14T08:53:05.008Z,18.56
2018-04-14T08:55:33.477Z,18.64
2018-04-14T08:58:02.750Z,18.71
2018-04-14T09:00:33.378Z,18.75
2018-04-14T09:03:02.848Z,18.80
2018-04-14T09:05:32.854Z,18.88
2018-04-14T09:08:01.965Z,18.97
2018-04-14T09:10:31.775Z,19.15
2018-04-14T09:13:00.313Z,19.34
2018-04-14T09:15:39.102Z,19.44
2018-04-14T09:18:08.077Z,19.55
2018-04-14T09:20:36.882Z,19.54
2018-04-14T09:23:05.407Z,19.57
2018-04-14T09:25:36.338Z,19.65
2018-04-14T09:28:13.470Z,19.76
2018-04-14T09:30:41.883Z,19.89
2018-04-14T09:33:11.861Z,19.97
2018-04-14T09:35:40.345Z,20.10
2018-04-14T09:38:09.643Z,20.14
2018-04-14T09:40:40.958Z,20.20
2018-04-14T09:43:09.510Z,20.23
2018-04-14T09:45:37.912Z,20.30
2018-04-14T09:48:07.173Z,20.38
2018-04-14T09:50:38.210Z,20.43
2018-04-14T09:53:07.387Z,20.52
2018-04-14T09:55:37.798Z,20.63
2018-04-14T09:58:07.251Z,20.69
2018-04-14T10:00:42.436Z,20.81
2018-04-14T10:03:16.485Z,20.97
2018-04-14T10:05:55.992Z,21.20
2018-04-14T10:08:25.495Z,21.26
2018-04-14T10:10:53.863Z,21.28
2018-04-14T10:13:23.634Z,21.30
2018-04-14T10:15:51.970Z,21.44
2018-04-14T10:18:22.011Z,21.65
2018-04-14T10:20:50.379Z,21.70
2018-04-14T10:23:19.666Z,21.57
2018-04-14T10:25:48.216Z,21.72
2018-04-14T10:28:19.974Z,21.97
2018-04-14T10:30:48.924Z,22.19
2018-04-14T10:33:20.170Z,22.28
2018-04-14T10:35:48.820Z,22.36
2018-04-14T10:38:18.649Z,22.46
2018-04-14T10:40:47.916Z,22.62
2018-04-14T10:43:17.730Z,22.77
2018-04-14T10:45:47.093Z,22.85
2018-04-14T10:48:17.849Z,22.89
2018-04-14T10:50:46.471Z,22.92
2018-04-14T10:53:16.320Z,22.99
2018-04-14T10:55:44.673Z,22.96
2018-04-14T10:58:17.087Z,22.78
2018-04-14T11:00:45.652Z,22.81
2018-04-14T11:03:16.167Z,23.02
2018-04-14T11:05:45.240Z,23.18
2018-04-14T11:08:15.228Z,23.36
2018-04-14T11:10:43.611Z,23.53
2018-04-14T11:13:13.331Z,23.71
2018-04-14T11:15:42.419Z,23.86
2018-04-14T11:18:12.073Z,23.86
2018-04-14T11:20:40.631Z,23.77
2018-04-14T11:23:10.022Z,23.68
2018-04-14T11:25:38.349Z,23.56
2018-04-14T11:28:08.077Z,23.54
2018-04-14T11:30:36.440Z,23.60
2018-04-14T11:33:06.575Z,23.90
2018-04-14T11:35:35.189Z,24.11
2018-04-14T11:40:53.042Z,24.19
2018-04-14T11:46:05.277Z,23.98
2018-04-14T11:48:36.822Z,23.95
2018-04-14T11:51:06.888Z,24.05
2018-04-14T11:53:37.221Z,24.10
2018-04-14T11:56:06.198Z,24.08
2018-04-14T11:58:34.764Z,24.13
2018-04-14T12:01:03.156Z,24.31
2018-04-14T12:03:35.002Z,24.45
2018-04-14T12:06:03.635Z,24.42
2018-04-14T12:08:46.931Z,24.41
2018-04-14T12:11:17.756Z,24.41
2018-04-14T12:13:49.291Z,24.43
2018-04-14T12:16:17.602Z,24.13
2018-04-14T12:18:46.766Z,23.71
2018-04-14T12:21:16.049Z,23.55
2018-04-14T12:23:45.214Z,23.53
2018-04-14T12:26:13.567Z,23.46
2018-04-14T12:28:43.677Z,23.21
2018-04-14T12:31:12.681Z,22.94
2018-04-14T12:33:44.885Z,22.85
2018-04-14T12:36:14.073Z,22.76
2018-04-14T12:38:43.921Z,22.74
2018-04-14T12:41:12.519Z,22.82
2018-04-14T12:43:42.478Z,22.87
2018-04-14T12:46:10.970Z,22.96
2018-04-14T12:48:40.747Z,23.04
2018-04-14T12:51:09.337Z,23.08
2018-04-14T12:53:39.466Z,23.25
2018-04-14T12:56:08.822Z,23.51
2018-04-14T12:58:37.162Z,23.64
2018-04-14T13:01:05.865Z,23.62
2018-04-14T13:03:34.210Z,23.61
2018-04-14T13:06:02.912Z,23.65
2018-04-14T13:08:46.733Z,23.73
2018-04-14T13:11:18.991Z,23.95
2018-04-14T13:13:47.797Z,24.20
2018-04-14T13:16:16.185Z,24.26
2018-04-14T13:18:44.778Z,24.19
2018-04-14T13:21:14.165Z,24.23
2018-04-14T13:23:43.135Z,24.37
2018-04-14T13:26:11.745Z,24.44
2018-04-14T13:28:41.270Z,24.43
2018-04-14T13:31:09.749Z,24.38
2018-04-14T13:33:39.895Z,24.40
2018-04-14T13:36:09.136Z,24.50
2018-04-14T13:38:39.844Z,24.44
2018-04-14T13:41:08.503Z,24.15
2018-04-14T13:43:39.510Z,24.02
2018-04-14T13:46:08.098Z,24.02
2018-04-14T13:48:40.007Z,24.05
2018-04-14T13:51:08.530Z,23.96
2018-04-14T13:53:37.862Z,23.79
2018-04-14T13:56:06.347Z,23.68
2018-04-14T13:58:35.702Z,23.72
2018-04-14T14:01:04.290Z,23.81
2018-04-14T14:03:32.807Z,23.96
2018-04-14T14:06:05.323Z,24.14
2018-04-14T14:08:33.666Z,24.17
2018-04-14T14:11:02.160Z,24.22
2018-04-14T14:13:30.728Z,24.25
2018-04-14T14:16:00.633Z,24.39
2018-04-14T14:18:30.251Z,24.56
2018-04-14T14:21:00.263Z,24.69
2018-04-14T14:23:28.889Z,24.72
2018-04-14T14:25:59.103Z,24.59
2018-04-14T14:28:27.585Z,24.50
2018-04-14T14:31:01.180Z,24.37
2018-04-14T14:33:29.766Z,24.21
2018-04-14T14:36:00.249Z,24.02
2018-04-14T14:38:28.589Z,23.88
2018-04-14T14:40:57.906Z,23.83
2018-04-14T14:43:27.090Z,23.77
2018-04-14T14:46:00.152Z,23.77
2018-04-14T14:48:28.655Z,23.70
2018-04-14T14:50:58.612Z,23.66
2018-04-14T14:53:27.091Z,23.70
2018-04-14T14:55:55.543Z,23.68
2018-04-14T14:58:23.918Z,23.66
2018-04-14T15:00:59.458Z,23.69
2018-04-14T15:03:32.375Z,23.70
2018-04-14T15:06:00.861Z,23.67
2018-04-14T15:08:32.607Z,23.71
2018-04-14T15:11:00.879Z,23.72
2018-04-14T15:13:30.670Z,23.58
2018-04-14T15:15:59.031Z,23.49
2018-04-14T15:18:29.925Z,23.31
2018-04-14T15:20:58.507Z,23.28
2018-04-14T15:23:29.208Z,23.30
2018-04-14T15:25:58.008Z,23.30
2018-04-14T15:28:27.314Z,23.27
2018-04-14T15:30:56.670Z,23.27
2018-04-14T15:33:26.374Z,23.27
2018-04-14T15:35:55.438Z,23.23
2018-04-14T15:38:26.993Z,23.09
2018-04-14T15:40:56.104Z,23.01
2018-04-14T15:43:26.916Z,22.94
2018-04-14T15:45:55.212Z,22.89
2018-04-14T15:48:23.703Z,22.89
2018-04-14T15:50:52.192Z,22.87
2018-04-14T15:53:23.720Z,22.86
2018-04-14T15:55:52.174Z,22.88
2018-04-14T15:58:22.826Z,22.87
2018-04-14T16:00:51.346Z,22.85
2018-04-14T16:03:22.856Z,22.80
2018-04-14T16:05:51.258Z,22.72
2018-04-14T16:08:21.628Z,22.63
2018-04-14T16:10:50.139Z,22.56
2018-04-14T16:13:21.244Z,22.53
2018-04-14T16:15:51.098Z,22.48
2018-04-14T16:18:21.462Z,22.42
2018-04-14T16:20:52.999Z,22.39
2018-04-14T16:23:22.219Z,22.32
2018-04-14T16:25:52.027Z,22.24
2018-04-14T16:28:21.298Z,22.13
2018-04-14T16:30:52.224Z,22.07
2018-04-14T16:33:20.523Z,22.01
2018-04-14T16:35:52.116Z,21.93
2018-04-14T16:38:20.597Z,21.81
2018-04-14T16:40:49.126Z,21.71
2018-04-14T16:43:17.607Z,21.61
2018-04-14T16:45:45.996Z,21.51
2018-04-14T16:48:15.232Z,21.43
2018-04-14T16:50:43.528Z,21.34
2018-04-14T16:53:14.568Z,21.22
2018-04-14T16:55:43.721Z,21.09
2018-04-14T16:58:12.304Z,20.97
2018-04-14T17:00:41.337Z,20.88
2018-04-14T17:03:10.050Z,20.80
2018-04-14T17:05:38.331Z,20.71
2018-04-14T17:08:09.152Z,20.62
2018-04-14T17:10:37.582Z,20.52
2018-04-14T17:13:06.239Z,20.40
2018-04-14T17:15:34.707Z,20.27
2018-04-14T17:18:04.336Z,20.13
2018-04-14T17:20:32.866Z,20.02
2018-04-14T17:23:02.786Z,19.90
2018-04-14T17:25:31.118Z,19.80
2018-04-14T17:27:59.723Z,19.68
2018-04-14T17:30:28.059Z,19.56
2018-04-14T17:32:57.724Z,19.45
2018-04-14T17:35:26.250Z,19.33
2018-04-14T17:37:58.863Z,19.21
2018-04-14T17:40:27.360Z,19.08
2018-04-14T17:42:58.250Z,18.90
2018-04-14T17:45:27.421Z,18.76
2018-04-14T17:47:57.243Z,18.65
2018-04-14T17:50:25.553Z,18.59
2018-04-14T17:52:54.262Z,18.52
2018-04-14T17:55:22.749Z,18.44
2018-04-14T17:57:53.571Z,18.35
2018-04-14T18:00:22.933Z,18.29
2018-04-14T18:02:53.039Z,18.23
2018-04-14T18:05:21.312Z,18.16
2018-04-14T18:07:51.103Z,18.08
2018-04-14T18:10:20.575Z,18.01
2018-04-14T18:12:49.127Z,17.92
2018-04-14T18:15:17.533Z,17.84
2018-04-14T18:17:48.107Z,17.76
2018-04-14T18:20:16.694Z,17.67
2018-04-14T18:22:45.263Z,17.61
2018-04-14T18:25:13.741Z,17.54
2018-04-14T18:27:44.904Z,17.43
2018-04-14T18:30:14.258Z,17.38
2018-04-14T18:32:44.719Z,17.30
2018-04-14T18:35:13.230Z,17.24
2018-04-14T18:37:43.466Z,17.15
2018-04-14T18:40:12.626Z,17.06
2018-04-14T18:42:42.452Z,16.98
2018-04-14T18:45:11.674Z,16.90
2018-04-14T18:47:41.418Z,16.81
2018-04-14T18:50:10.510Z,16.71
2018-04-14T18:52:41.475Z,16.64
2018-04-14T18:55:09.856Z,16.59
2018-04-14T18:57:39.056Z,16.52
2018-04-14T19:00:08.432Z,16.43
2018-04-14T19:02:37.616Z,16.36
2018-04-14T19:05:06.825Z,16.32
2018-04-14T19:07:35.265Z,16.23
2018-04-14T19:10:04.643Z,16.15
2018-04-14T19:12:34.056Z,16.04
2018-04-14T19:15:03.230Z,15.97
2018-04-14T19:17:34.045Z,15.85
2018-04-14T19:20:03.128Z,15.74
2018-04-14T19:22:33.810Z,15.62
2018-04-14T19:25:02.193Z,15.53
2018-04-14T19:27:33.835Z,15.44
2018-04-14T19:30:02.185Z,15.36
2018-04-14T19:32:31.073Z,15.30
2018-04-14T19:34:59.393Z,15.25
2018-04-14T19:37:29.950Z,15.17
2018-04-14T19:39:59.950Z,15.13
2018-04-14T19:42:30.038Z,15.07
2018-04-14T19:44:58.533Z,15.01
2018-04-14T19:47:29.214Z,14.94
2018-04-14T19:49:57.597Z,14.87
2018-04-14T19:52:26.753Z,14.81
2018-04-14T19:54:55.087Z,14.73
2018-04-14T19:57:26.079Z,14.67
2018-04-14T19:59:55.447Z,14.61
2018-04-14T20:02:23.817Z,14.53
2018-04-14T20:04:52.161Z,14.46
2018-04-14T20:07:22.037Z,14.39
2018-04-14T20:09:50.633Z,14.32
2018-04-14T20:12:19.117Z,14.25
2018-04-14T20:14:48.186Z,14.17
2018-04-14T20:17:21.035Z,14.12
2018-04-14T20:19:49.399Z,14.06
2018-04-14T20:22:21.780Z,13.99
2018-04-14T20:24:51.145Z,13.92
2018-04-14T20:27:21.103Z,13.84
2018-04-14T20:29:51.223Z,13.76
2018-04-14T20:32:19.555Z,13.68
2018-04-14T20:34:49.927Z,13.61
2018-04-14T20:37:18.269Z,13.55
2018-04-14T20:39:47.917Z,13.48
2018-04-14T20:42:16.375Z,13.42
2018-04-14T20:44:45.887Z,13.36
2018-04-14T20:47:14.265Z,13.31
2018-04-14T20:49:43.579Z,13.26
2018-04-14T20:52:11.941Z,13.21
2018-04-14T20:54:42.955Z,13.14
2018-04-14T20:57:11.444Z,13.08
2018-04-14T20:59:44.302Z,13.00
2018-04-14T21:02:12.609Z,12.94
2018-04-14T21:04:42.891Z,12.87
2018-04-14T21:07:12.055Z,12.83
2018-04-14T21:09:46.484Z,12.78
2018-04-14T21:12:14.849Z,12.75
2018-04-14T21:14:43.279Z,12.70
2018-04-14T21:17:11.748Z,12.65
2018-04-14T21:19:40.127Z,12.61
2018-04-14T21:22:09.289Z,12.57
2018-04-14T21:24:38.876Z,12.51
2018-04-14T21:27:07.953Z,12.49
2018-04-14T21:29:37.163Z,12.45
2018-04-14T21:32:05.682Z,12.40
2018-04-14T21:34:34.666Z,12.37
2018-04-14T21:37:02.989Z,12.34
2018-04-14T21:39:31.307Z,12.30
2018-04-14T21:41:59.631Z,12.22
2018-04-14T21:44:30.198Z,12.18
2018-04-14T21:46:58.459Z,12.21
2018-04-14T21:49:28.488Z,12.23
2018-04-14T21:51:56.820Z,12.23
2018-04-14T21:54:25.215Z,12.20
2018-04-14T21:56:53.517Z,12.17
2018-04-14T21:59:22.640Z,12.13
2018-04-14T22:01:52.282Z,12.09
2018-04-14T22:04:21.636Z,12.05
2018-04-14T22:06:51.350Z,12.03
2018-04-14T22:09:21.464Z,11.99
2018-04-14T22:33:38.649Z,11.65
2018-04-14T22:36:08.019Z,11.62
2018-04-14T22:38:36.603Z,11.59
2018-04-14T22:41:07.494Z,11.58
2018-04-14T22:43:36.089Z,11.59
2018-04-14T22:46:08.175Z,11.56
2018-04-14T22:48:36.708Z,11.51
2018-04-14T22:51:08.651Z,11.46
2018-04-14T22:53:37.222Z,11.42
2018-04-14T22:56:07.926Z,11.38
2018-04-14T22:58:36.495Z,11.35
2018-04-14T23:01:05.060Z,11.34
2018-04-14T23:03:33.636Z,11.32
2018-04-14T23:06:10.087Z,11.29
2018-04-14T23:08:39.479Z,11.26
2018-04-14T23:11:10.683Z,11.24
2018-04-14T23:13:39.279Z,11.18
2018-04-14T23:16:10.647Z,11.15
2018-04-14T23:18:39.269Z,11.11
2018-04-14T23:21:10.269Z,11.08
2018-04-14T23:23:38.965Z,11.01
2018-04-14T23:26:10.045Z,10.98
2018-04-14T23:28:38.654Z,10.94
2018-04-14T23:31:09.226Z,10.90
2018-04-14T23:33:37.834Z,10.91
2018-04-14T23:36:06.450Z,10.86
2018-04-14T23:38:34.983Z,10.83
2018-04-14T23:41:04.463Z,10.78
2018-04-14T23:43:33.856Z,10.74
2018-04-14T23:46:03.236Z,10.71
2018-04-14T23:48:36.571Z,10.68
2018-04-14T23:51:05.290Z,10.63
2018-04-14T23:53:36.205Z,10.59
2018-04-14T23:56:04.980Z,10.53
2018-04-14T23:58:36.956Z,10.49
